Time,TemperatureF,DewpointF,PressureIn,WindDirection,WindDirectionDegrees,WindSpeedMPH,WindSpeedGustMPH,Humidity,HourlyPrecipIn,Conditions,Clouds,dailyrainin,SoftwareType,DateUTC
2013-09-01 00:03:00,65.0,60.0,-100.00,WNW,285,0.0,4.0,86,0.00,,,-99.99,,2013-09-01 05:03:00,
2013-09-01 00:12:00,65.0,60.0,-100.00,WNW,285,0.0,4.0,86,0.00,,,-99.99,,2013-09-01 05:12:00,
2013-09-01 00:43:00,63.0,59.0,-100.00,WNW,295,1.0,1.0,86,0.00,,,-99.99,,2013-09-01 05:43:00,
2013-09-01 00:52:00,63.0,59.0,-100.00,WNW,295,1.0,1.0,86,0.00,,,-99.99,,2013-09-01 05:52:00,
2013-09-01 01:02:00,63.0,59.0,-100.00,WNW,295,1.0,1.0,86,0.00,,,-99.99,,2013-09-01 06:02:00,
2013-09-01 01:12:00,63.0,59.0,-100.00,WNW,295,1.0,1.0,86,0.00,,,-99.99,,2013-09-01 06:12:00,
2013-09-01 01:42:00,63.0,58.0,-100.00,NNW,340,1.0,2.0,86,0.00,,,-99.99,,2013-09-01 06:42:00,
2013-09-01 01:52:00,63.0,58.0,-100.00,NNW,340,1.0,2.0,86,0.00,,,-99.99,,2013-09-01 06:52:00,
2013-09-01 02:02:00,63.0,58.0,-100.00,NNW,340,1.0,2.0,86,0.00,,,-99.99,,2013-09-01 07:02:00,
2013-09-01 02:12:00,63.0,58.0,-100.00,NNW,340,1.0,2.0,86,0.00,,,-99.99,,2013-09-01 07:12:00,
2013-09-01 02:52:00,62.0,58.0,-100.00,WNW,290,0.0,2.0,86,0.00,,,-99.99,,2013-09-01 07:52:00,
2013-09-01 03:02:00,62.0,58.0,-100.00,WNW,290,0.0,2.0,86,0.00,,,-99.99,,2013-09-01 08:02:00,
2013-09-01 03:11:00,62.0,58.0,-100.00,WNW,290,0.0,2.0,86,0.00,,,-99.99,,2013-09-01 08:11:00,
2013-09-01 03:52:00,61.0,56.0,-100.00,WNW,295,0.0,2.0,86,0.00,,,-99.99,,2013-09-01 08:52:00,
2013-09-01 04:02:00,61.0,56.0,-100.00,WNW,295,0.0,2.0,86,0.00,,,-99.99,,2013-09-01 09:02:00,
2013-09-01 04:11:00,61.0,56.0,-100.00,WNW,295,0.0,2.0,86,0.00,,,-99.99,,2013-09-01 09:11:00,
2013-09-01 04:43:00,63.0,58.0,-100.00,WSW,255,3.0,9.0,86,0.00,,,-99.99,,2013-09-01 09:43:00,
2013-09-01 04:53:00,63.0,58.0,-100.00,WSW,255,3.0,9.0,86,0.00,,,-99.99,,2013-09-01 09:53:00,
2013-09-01 05:03:00,63.0,58.0,-100.00,WSW,255,3.0,9.0,86,0.00,,,-99.99,,2013-09-01 10:03:00,
2013-09-01 05:12:00,63.0,58.0,-100.00,WSW,255,3.0,9.0,86,0.00,,,-99.99,,2013-09-01 10:12:00,
2013-09-01 05:42:00,64.0,59.0,-100.00,West,275,7.0,10.0,86,0.00,,,-99.99,,2013-09-01 10:42:00,
2013-09-01 05:53:00,64.0,59.0,-100.00,West,275,7.0,10.0,86,0.00,,,-99.99,,2013-09-01 10:53:00,
2013-09-01 06:02:00,64.0,59.0,-100.00,West,275,7.0,10.0,86,0.00,,,-99.99,,2013-09-01 11:02:00,
2013-09-01 06:12:00,64.0,59.0,-100.00,West,275,7.0,10.0,86,0.00,,,-99.99,,2013-09-01 11:12:00,
2013-09-01 06:52:00,63.0,59.0,-100.00,West,270,5.0,11.0,85,0.00,,,-99.99,,2013-09-01 11:52:00,
2013-09-01 07:01:00,63.0,59.0,-100.00,West,270,5.0,11.0,85,0.00,,,-99.99,,2013-09-01 12:01:00,
2013-09-01 07:12:00,63.0,59.0,-100.00,West,270,5.0,11.0,85,0.00,,,-99.99,,2013-09-01 12:12:00,
2013-09-01 07:52:00,63.0,58.0,-100.00,West,270,9.0,16.0,83,0.00,,,-99.99,,2013-09-01 12:52:00,
2013-09-01 08:02:00,63.0,58.0,-100.00,West,270,9.0,16.0,83,0.00,,,-99.99,,2013-09-01 13:02:00,
2013-09-01 08:11:00,63.0,58.0,-100.00,West,270,9.0,16.0,83,0.00,,,-99.99,,2013-09-01 13:11:00,
2013-09-01 08:52:00,64.0,54.0,-100.00,West,280,7.0,17.0,71,0.00,,,-99.99,,2013-09-01 13:52:00,
2013-09-01 09:02:00,64.0,54.0,-100.00,West,280,7.0,17.0,71,0.00,,,-99.99,,2013-09-01 14:02:00,
2013-09-01 09:11:00,64.0,54.0,-100.00,West,280,7.0,17.0,71,0.00,,,-99.99,,2013-09-01 14:11:00,
2013-09-01 09:52:00,66.0,53.0,-100.00,West,280,9.0,15.0,64,0.00,,,-99.99,,2013-09-01 14:52:00,
2013-09-01 10:02:00,66.0,53.0,-100.00,West,280,9.0,15.0,64,0.00,,,-99.99,,2013-09-01 15:02:00,
2013-09-01 10:11:00,66.0,53.0,-100.00,West,280,9.0,15.0,64,0.00,,,-99.99,,2013-09-01 15:11:00,
2013-09-01 16:13:00,68.0,55.0,-100.00,WNW,300,7.0,17.0,65,0.00,,,-99.99,,2013-09-01 21:13:00,
2013-09-01 16:44:00,68.0,55.0,-100.00,WNW,300,7.0,17.0,65,0.00,,,-99.99,,2013-09-01 21:44:00,
2013-09-01 16:55:00,68.0,55.0,-100.00,WNW,300,7.0,17.0,65,0.00,,,-99.99,,2013-09-01 21:55:00,
2013-09-01 17:04:00,68.0,55.0,-100.00,WNW,300,7.0,17.0,65,0.00,,,-99.99,,2013-09-01 22:04:00,
2013-09-01 18:53:00,64.0,52.0,-100.00,NW,305,5.0,11.0,65,0.00,,,-99.99,,2013-09-01 23:53:00,
2013-09-01 19:02:00,64.0,52.0,-100.00,NW,305,5.0,11.0,65,0.00,,,-99.99,,2013-09-02 00:02:00,
2013-09-01 19:11:00,64.0,52.0,-100.00,NW,305,5.0,11.0,65,0.00,,,-99.99,,2013-09-02 00:11:00,
2013-09-01 19:42:00,61.0,50.0,-100.00,WNW,290,6.0,14.0,67,0.00,,,-99.99,,2013-09-02 00:42:00,
2013-09-01 19:52:00,61.0,50.0,-100.00,WNW,290,6.0,14.0,67,0.00,,,-99.99,,2013-09-02 00:52:00,
2013-09-01 20:02:00,61.0,50.0,-100.00,WNW,290,6.0,14.0,67,0.00,,,-99.99,,2013-09-02 01:02:00,
2013-09-01 20:12:00,61.0,50.0,-100.00,WNW,290,6.0,14.0,67,0.00,,,-99.99,,2013-09-02 01:12:00,
2013-09-01 20:52:00,60.0,49.0,-100.00,West,280,7.0,13.0,67,0.00,,,-99.99,,2013-09-02 01:52:00,
2013-09-01 21:02:00,60.0,49.0,-100.00,West,280,7.0,13.0,67,0.00,,,-99.99,,2013-09-02 02:02:00,
2013-09-01 21:12:00,60.0,49.0,-100.00,West,280,7.0,13.0,67,0.00,,,-99.99,,2013-09-02 02:12:00,
2013-09-01 21:52:00,59.0,49.0,-100.00,WNW,295,2.0,11.0,70,0.00,,,-99.99,,2013-09-02 02:52:00,
2013-09-01 22:02:00,59.0,49.0,-100.00,WNW,295,2.0,11.0,70,0.00,,,-99.99,,2013-09-02 03:02:00,
2013-09-01 22:11:00,59.0,49.0,-100.00,WNW,295,2.0,11.0,70,0.00,,,-99.99,,2013-09-02 03:11:00,
2013-09-01 22:14:00,56.0,50.0,-100.00,North,-999,-999.0,-999.0,78,0.00,,,-99.99,,2013-09-02 03:14:00,
2013-09-01 22:56:00,56.0,50.0,-100.00,North,-999,-999.0,-999.0,78,0.00,,,-99.99,,2013-09-02 03:56:00,
2013-09-01 23:04:00,56.0,50.0,-100.00,North,-999,-999.0,-999.0,78,0.00,,,-99.99,,2013-09-02 04:04:00,
2013-09-01 23:13:00,55.0,49.0,-100.00,NNW,345,0.0,1.0,81,0.00,,,-99.99,,2013-09-02 04:13:00,
2013-09-01 23:44:00,55.0,49.0,-100.00,NNW,345,0.0,1.0,81,0.00,,,-99.99,,2013-09-02 04:44:00,
2013-09-01 23:54:00,55.0,49.0,-100.00,NNW,345,0.0,1.0,81,0.00,,,-99.99,,2013-09-02 04:54:00,